Detall de PIREP

Printer-friendly versionPDF version

[2014/01/10 09:01:00]
Flight IATA:CT2104
Pilot Number:041
Company ICAO:CAT
Aircraft Type:F70/E
PAX:72
Aircraft Registration:DA
Departing Airport: LEVC
Destination Airport: LEBB
Alternate Airport:LEBL
Online: VATSIM
Route:CENTA A33 CJN R10 PPN G23 CEGAM
Flight Level:FL230
No Slew and time accel
No pause
Crash detect
Detect pilot in Cockpit between each 30 and 45 minutes
09:01 Zero fuel Weight: 74131 Lbs, Fuel Weight: 10544 Lbs
09:01 VATSIM:LEVC 100830Z 33007KT 1800 BR OVC005 08/06 Q1020 NOSIG
09:01 VATSIM:LEBB 100830Z 00000KT CAVOK 07/05 Q1015 NOSIG
09:02 VOICE CATALONIAN
09:12 Parking Brakes off
09:17 Take-off
09:17 Take off Weight: 84302 Lbs
09:17 Wind: 333º @ 006 Knots Heading: 296º
09:17 POS N39º 29´ 26´´ W000º 29´ 06´´
09:17 Gear Up: 160 Knots
09:17 Flaps:1 at 160 Knots
09:18 Flaps:0 at 151 Knots
09:32 Wind:212º@019 Knots Heading: 295º Ground Speed: 343 Knots Altitude 15935 ft
09:36 TOC
09:36 Fuel Weight: 8072 Lb
09:47 Wind:203º@024 Knots Heading: 014º Ground Speed: 410 Knots Altitude 24196 ft
10:02 Wind:217º@034 Knots Heading: 302º Ground Speed: 384 Knots Altitude 24166 ft
10:03 TOD
10:03 Fuel Weight: 5807 Lb
10:16 Flaps:1 at 199 Knots
10:17 Wind:196º@007 Knots Heading: 172º Ground Speed: 195 Knots Altitude 3038 ft
10:17 Flaps:2 at 184 Knots
10:17 Gear Down: 172 Knots
10:20 Flaps:3 at 167 Knots
10:20 Flaps:2 at 164 Knots
10:20 Flaps:3 at 163 Knots
10:20 Flaps:2 at 163 Knots
10:20 Flaps:3 at 162 Knots
10:21 Flaps:2 at 153 Knots
10:21 Flaps:3 at 152 Knots
10:21 Flaps:2 at 152 Knots
10:21 Flaps:3 at 151 Knots
10:21 Flaps:4 at 151 Knots
10:24 TouchDown:Rate -164 ft/min Speed: 116 Knots
10:25 VATSIM:LEBB 101000Z VRB01KT CAVOK 10/07 Q1016 NOSIG
10:25 Land
10:25 Wind:074º@001 Knots
10:25 Heading: 098º
10:25 Flight Duration: 01:08
10:25 Landing Weight: 78802 Lbs
10:25 POS N43º 18´ 02´´ W002º 54´ 34´´
10:26 Parking brakes on
10:26 Block to Block Duration: 01:14
10:26 Final Fuel: 4607 Lbls
10:26 Spent Fuel: 5936 Lbls
10:26 Flight Length: 362 NM
10:26 TOD Land Length: 85 NM

Exportar CSV

Powered by Drupal - Modified by Danger4k